createdAt,value
2019-05-11T00:03:10.055Z,48.93
2019-05-11T00:08:13.716Z,49.80
2019-05-11T00:13:17.276Z,48.63
2019-05-11T00:18:20.931Z,47.57
2019-05-11T00:23:24.603Z,47.70
2019-05-11T00:28:28.191Z,46.53
2019-05-11T00:33:31.775Z,46.77
2019-05-11T00:38:35.459Z,47.93
2019-05-11T00:43:39.102Z,46.17
2019-05-11T00:48:42.775Z,44.97
2019-05-11T00:53:46.347Z,47.27
2019-05-11T00:58:50.982Z,47.57
2019-05-11T01:03:54.816Z,47.17
2019-05-11T01:08:58.524Z,44.77
2019-05-11T01:14:02.344Z,43.87
2019-05-11T01:19:06.002Z,43.87
2019-05-11T01:24:09.635Z,42.50
2019-05-11T01:29:13.392Z,41.90
2019-05-11T01:34:16.999Z,43.07
2019-05-11T01:39:20.625Z,43.27
2019-05-11T01:44:24.363Z,42.63
2019-05-11T01:49:27.943Z,42.20
2019-05-11T01:54:31.546Z,40.57
2019-05-11T01:59:35.372Z,42.07
2019-05-11T02:04:39.018Z,42.03
2019-05-11T02:09:42.634Z,41.80
2019-05-11T02:14:46.282Z,42.03
2019-05-11T02:19:49.994Z,61.10
2019-05-11T02:24:53.591Z,54.13
2019-05-11T02:29:57.200Z,51.10
2019-05-11T02:35:00.832Z,46.30
2019-05-11T02:40:07.447Z,47.67
2019-05-11T02:45:12.197Z,44.77
2019-05-11T02:50:16.761Z,43.00
2019-05-11T02:55:20.383Z,42.30
2019-05-11T03:00:41.362Z,42.45
2019-05-11T03:05:45.107Z,41.90
2019-05-11T03:10:48.720Z,41.60
2019-05-11T03:15:52.471Z,42.03
2019-05-11T03:20:56.038Z,43.27
2019-05-11T03:25:59.623Z,42.07
2019-05-11T03:31:03.212Z,42.27
2019-05-11T03:36:06.916Z,41.47
2019-05-11T03:41:10.638Z,43.40
2019-05-11T03:46:14.379Z,44.83
2019-05-11T03:51:18.052Z,42.57
2019-05-11T03:56:21.694Z,44.33
2019-05-11T04:01:25.246Z,45.37
2019-05-11T04:06:29.103Z,44.03
2019-05-11T04:11:32.864Z,45.03
2019-05-11T04:16:36.587Z,44.70
2019-05-11T04:21:40.156Z,46.80
2019-05-11T04:26:43.819Z,44.93
2019-05-11T04:31:47.639Z,43.87
2019-05-11T04:36:51.273Z,49.60
2019-05-11T04:41:54.875Z,48.00
2019-05-11T04:46:58.483Z,47.13
2019-05-11T04:52:02.041Z,46.67
2019-05-11T04:57:05.800Z,47.23
2019-05-11T05:02:09.400Z,47.50
2019-05-11T05:07:16.225Z,47.93
2019-05-11T05:12:18.372Z,49.40
2019-05-11T05:17:21.960Z,49.07
2019-05-11T05:22:27.935Z,50.37
2019-05-11T05:27:30.904Z,50.43
2019-05-11T05:32:34.472Z,49.50
2019-05-11T05:37:38.244Z,50.20
2019-05-11T05:42:41.800Z,48.78
2019-05-11T05:47:45.407Z,49.63
2019-05-11T05:52:49.014Z,48.90
2019-05-11T05:57:52.762Z,49.60
2019-05-11T06:02:56.343Z,50.12
2019-05-11T06:08:00.001Z,48.75
2019-05-11T06:13:03.644Z,48.98
2019-05-11T06:18:07.394Z,48.95
2019-05-11T06:23:11.044Z,48.55
2019-05-11T06:28:14.665Z,49.33
2019-05-11T06:33:18.231Z,47.73
2019-05-11T06:38:22.631Z,49.45
2019-05-11T06:43:26.212Z,50.00
2019-05-11T06:48:29.935Z,49.05
2019-05-11T06:53:33.609Z,50.28
2019-05-11T06:58:37.280Z,49.85
2019-05-11T07:03:40.894Z,48.65
2019-05-11T07:08:44.458Z,48.60
2019-05-11T07:13:48.127Z,49.53
2019-05-11T07:18:51.791Z,49.00
2019-05-11T07:23:55.395Z,48.52
2019-05-11T07:28:59.052Z,48.48
2019-05-11T07:34:02.639Z,47.43
2019-05-11T07:39:08.449Z,49.40
2019-05-11T07:44:12.179Z,48.40
2019-05-11T07:49:17.824Z,48.55
2019-05-11T07:54:21.223Z,48.00
2019-05-11T07:59:25.094Z,47.95
2019-05-11T08:04:28.938Z,47.17
2019-05-11T08:09:32.743Z,47.33
2019-05-11T08:14:55.814Z,47.23
2019-05-11T08:19:41.678Z,46.88
2019-05-11T08:24:45.268Z,46.65
2019-05-11T08:29:48.971Z,47.20
2019-05-11T08:34:52.591Z,47.00
2019-05-11T08:39:58.352Z,47.17
2019-05-11T08:45:16.148Z,47.00
2019-05-11T08:50:08.122Z,47.02
2019-05-11T08:55:12.459Z,46.55
2019-05-11T09:00:17.950Z,46.55
2019-05-11T09:05:21.775Z,46.35
2019-05-11T09:10:28.130Z,46.70
2019-05-11T09:15:36.773Z,47.30
2019-05-11T09:20:37.836Z,46.83
2019-05-11T09:25:41.572Z,47.15
2019-05-11T09:30:45.140Z,46.53
2019-05-11T09:35:53.119Z,46.68
2019-05-11T09:40:54.148Z,46.90
2019-05-11T09:45:58.369Z,46.15
2019-05-11T09:51:02.071Z,46.50
2019-05-11T09:56:07.909Z,46.37
2019-05-11T10:01:11.059Z,46.73
2019-05-11T10:06:14.735Z,46.40
2019-05-11T10:11:19.132Z,46.53
2019-05-11T10:16:22.775Z,47.55
2019-05-11T10:21:27.811Z,46.30
2019-05-11T10:26:31.624Z,46.48
2019-05-11T10:31:35.375Z,46.60
2019-05-11T10:36:39.016Z,46.58
2019-05-11T10:41:42.620Z,46.65
2019-05-11T10:46:48.344Z,45.98
2019-05-11T10:51:51.648Z,46.70
2019-05-11T10:56:57.730Z,46.30
2019-05-11T11:02:00.709Z,47.48
2019-05-11T11:07:04.493Z,46.15
2019-05-11T11:12:08.368Z,47.00
2019-05-11T11:17:12.219Z,46.10
2019-05-11T11:22:33.339Z,46.28
2019-05-11T11:27:21.234Z,49.38
2019-05-11T11:32:24.827Z,45.95
2019-05-11T11:37:28.489Z,46.70
2019-05-11T11:42:32.066Z,45.95
2019-05-11T11:47:38.143Z,46.58
2019-05-11T11:52:41.013Z,46.68
2019-05-11T11:57:44.646Z,46.92
2019-05-11T12:02:48.829Z,46.73
2019-05-11T12:07:52.534Z,46.20
2019-05-11T12:12:58.125Z,49.58
2019-05-11T12:18:01.559Z,46.65
2019-05-11T12:23:05.360Z,46.73
2019-05-11T12:28:09.028Z,46.37
2019-05-11T12:33:12.670Z,47.00
2019-05-11T12:38:18.339Z,48.00
2019-05-11T12:43:22.602Z,50.67
2019-05-11T12:48:28.477Z,47.90
2019-05-11T12:53:32.000Z,46.92
2019-05-11T12:58:35.663Z,49.42
2019-05-11T13:03:39.239Z,46.70
2019-05-11T13:08:42.919Z,46.33
2019-05-11T13:13:48.459Z,46.05
2019-05-11T13:18:51.836Z,46.98
2019-05-11T13:23:57.551Z,47.15
2019-05-11T13:29:00.672Z,46.80
2019-05-11T13:34:04.696Z,46.77
2019-05-11T13:39:09.071Z,46.80
2019-05-11T13:44:12.792Z,47.35
2019-05-11T13:49:17.881Z,47.15
2019-05-11T13:54:21.698Z,47.62
2019-05-11T13:59:27.853Z,48.65
2019-05-11T14:04:30.890Z,52.08
2019-05-11T14:09:34.577Z,51.70
2019-05-11T14:14:38.251Z,52.27
2019-05-11T14:19:42.192Z,48.40
2019-05-11T14:24:47.622Z,48.73
2019-05-11T14:29:51.068Z,50.08
2019-05-11T14:34:57.840Z,49.27
2019-05-11T14:40:01.635Z,49.75
2019-05-11T14:45:08.241Z,48.23
2019-05-11T14:50:12.156Z,49.06
2019-05-11T14:55:18.211Z,49.42
2019-05-11T15:00:21.363Z,47.10
2019-05-11T15:05:25.045Z,48.85
2019-05-11T15:10:29.317Z,48.00
2019-05-11T15:15:33.000Z,49.23
2019-05-11T15:20:38.350Z,49.08
2019-05-11T15:25:42.024Z,49.15
2019-05-11T15:30:48.093Z,51.18
2019-05-11T15:35:51.109Z,48.98
2019-05-11T15:40:54.685Z,50.45
2019-05-11T15:45:58.423Z,49.75
2019-05-11T15:51:02.645Z,49.06
2019-05-11T15:56:08.597Z,48.92
2019-05-11T16:01:11.930Z,48.98
2019-05-11T16:06:18.323Z,50.38
2019-05-11T16:11:20.776Z,52.17
2019-05-11T16:16:24.627Z,60.75
2019-05-11T16:21:28.604Z,49.58
2019-05-11T16:26:32.461Z,50.35
2019-05-11T16:31:37.880Z,50.58
2019-05-11T16:36:41.873Z,49.75
2019-05-11T16:41:45.626Z,52.78
2019-05-11T16:46:50.881Z,51.63
2019-05-11T16:51:54.728Z,53.17
2019-05-11T16:56:58.523Z,51.23
2019-05-11T17:02:02.127Z,53.08
2019-05-11T17:07:05.763Z,52.48
2019-05-11T17:12:09.431Z,53.33
2019-05-11T17:17:13.141Z,52.80
2019-05-11T17:22:18.831Z,53.45
2019-05-11T17:27:21.996Z,53.28
2019-05-11T17:32:25.547Z,51.78
2019-05-11T17:37:29.279Z,54.27
2019-05-11T17:42:32.936Z,52.67
2019-05-11T17:47:38.669Z,55.78
2019-05-11T17:52:41.844Z,55.33
2019-05-11T17:57:45.419Z,54.13
2019-05-11T18:02:49.276Z,55.10
2019-05-11T18:07:52.985Z,58.73
2019-05-11T18:12:57.790Z,58.42
2019-05-11T18:18:01.689Z,63.42
2019-05-11T18:23:05.495Z,95.60
2019-05-11T18:28:09.089Z,94.32
2019-05-11T18:33:12.704Z,72.64
2019-05-11T18:38:17.830Z,61.23
2019-05-11T18:43:21.500Z,64.55
2019-05-11T18:48:25.093Z,66.20
2019-05-11T18:53:29.108Z,89.07
2019-05-11T18:58:32.986Z,68.25
2019-05-11T19:03:38.509Z,65.50
2019-05-11T19:08:42.108Z,70.45
2019-05-11T19:13:47.787Z,60.80
2019-05-11T19:18:51.496Z,61.47
2019-05-11T19:23:55.188Z,62.30
2019-05-11T19:29:00.789Z,56.77
2019-05-11T19:34:04.200Z,57.43
2019-05-11T19:39:09.061Z,55.90
2019-05-11T19:44:12.937Z,56.80
2019-05-11T19:49:18.808Z,56.03
2019-05-11T19:54:21.877Z,56.07
2019-05-11T19:59:27.856Z,56.57
2019-05-11T20:04:30.801Z,59.33
2019-05-11T20:09:34.552Z,61.07
2019-05-11T20:14:38.340Z,59.83
2019-05-11T20:19:42.153Z,60.93
2019-05-11T20:24:47.648Z,62.00
2019-05-11T20:29:51.071Z,61.50
2019-05-11T20:34:54.751Z,61.80
2019-05-11T20:39:58.600Z,59.97
2019-05-11T20:45:02.520Z,61.83
2019-05-11T20:50:07.903Z,58.57
2019-05-11T20:55:11.997Z,59.80
2019-05-11T21:00:18.432Z,59.63
2019-05-11T21:05:21.667Z,61.47
2019-05-11T21:10:28.160Z,60.40
2019-05-11T21:15:31.787Z,62.37
2019-05-11T21:20:38.049Z,60.83
2019-05-11T21:25:41.074Z,62.27
2019-05-11T21:30:45.189Z,61.37
2019-05-11T21:35:48.983Z,65.13
2019-05-11T21:40:52.655Z,62.70
2019-05-11T21:45:58.185Z,61.97
2019-05-11T21:51:01.531Z,58.55
2019-05-11T21:56:05.263Z,58.23
2019-05-11T22:01:09.016Z,57.03
2019-05-11T22:06:12.686Z,56.77
2019-05-11T22:11:17.963Z,57.00
2019-05-11T22:16:21.838Z,57.73
2019-05-11T22:21:27.830Z,59.60
2019-05-11T22:26:30.715Z,56.53
2019-05-11T22:31:34.459Z,57.77
2019-05-11T22:36:38.564Z,57.63
2019-05-11T22:41:42.395Z,59.67
2019-05-11T22:46:47.757Z,58.93
2019-05-11T22:51:51.337Z,59.43
2019-05-11T22:56:55.189Z,57.57
2019-05-11T23:01:58.876Z,59.13
2019-05-11T23:07:02.483Z,58.87
2019-05-11T23:12:06.053Z,59.67
2019-05-11T23:17:09.783Z,59.27
2019-05-11T23:22:13.484Z,59.37
2019-05-11T23:27:18.093Z,58.80
2019-05-11T23:32:22.059Z,69.40
2019-05-11T23:37:27.835Z,61.23
2019-05-11T23:42:31.093Z,60.90
2019-05-11T23:47:34.740Z,66.97
2019-05-11T23:52:38.464Z,65.70
2019-05-11T23:57:42.082Z,66.77
